WEST,Max TemperatureF,Mean TemperatureF,Min TemperatureF,Max Dew PointF,MeanDew PointF,Min DewpointF,Max Humidity, Mean Humidity, Min Humidity, Max Sea Level PressureIn, Mean Sea Level PressureIn, Min Sea Level PressureIn, Max VisibilityMiles, Mean VisibilityMiles, Min VisibilityMiles, Max Wind SpeedMPH, Mean Wind SpeedMPH, Max Gust SpeedMPH,PrecipitationIn, CloudCover, Events, WindDirDegrees
2013-9-1,88,76,63,70,65,57,77,60,45,30.17,30.12,30.06,9,7,6,20,8,33,0.00,1,,86
2013-9-2,86,76,67,66,65,62,73,55,38,30.19,30.13,30.09,9,8,6,20,11,,0.00,1,,79
2013-9-3,87,76,66,70,66,57,73,60,48,30.19,30.13,30.09,9,7,6,18,10,,0.00,1,,67
2013-9-4,86,75,64,70,66,57,73,63,49,30.16,30.06,30.01,6,6,5,18,6,,0.00,1,,42
2013-9-5,81,75,69,72,68,63,78,69,60,30.01,29.98,29.95,6,6,5,14,6,,0.00,2,,18
2013-9-6,78,74,69,70,67,62,83,76,67,29.99,29.96,29.92,6,5,5,14,7,,0.00,3,,356
2013-9-7,77,73,69,72,68,64,94,82,73,30.06,30.03,30.01,6,5,4,7,4,,0.16,5,Rain,336
2013-9-8,80,73,66,72,69,64,94,79,46,30.22,30.14,30.06,9,6,5,12,4,,0.00,5,Rain-Thunderstorm,12
2013-9-9,81,74,68,72,69,63,83,77,69,30.24,30.19,30.15,6,6,6,14,5,,0.00,1,,318
2013-9-10,88,78,67,73,70,63,88,74,60,30.18,30.10,30.04,6,6,5,16,7,,0.00,1,,2
2013-9-11,85,76,66,73,70,63,83,75,63,30.06,30.01,29.95,6,5,5,16,7,,0.00,2,,26
2013-9-12,86,79,72,73,70,68,83,73,65,30.10,30.06,30.04,6,6,5,16,8,24,0.00,3,,61
2013-9-13,84,79,73,72,69,67,83,72,62,30.19,30.13,30.09,6,6,5,16,11,,0.03,5,Rain,69
2013-9-14,82,75,68,71,68,63,83,74,63,30.15,30.08,30.01,6,6,5,14,6,,0.00,5,,348
2013-9-15,80,74,67,72,69,64,88,79,70,30.10,30.02,29.98,6,6,6,12,6,,0.00,2,,350
2013-9-16,85,79,73,72,69,64,78,72,60,30.01,29.98,29.95,9,7,6,14,5,,0.00,3,,44
2013-9-17,81,74,66,72,67,60,83,70,59,30.01,29.99,29.98,6,6,6,14,6,,0.00,1,,44
2013-9-18,79,72,66,68,66,62,83,72,63,30.07,30.03,30.01,6,6,5,9,5,,0.00,4,,7
2013-9-19,78,70,63,68,65,60,83,73,64,30.04,30.01,29.98,9,7,6,9,5,,0.00,1,,26
2013-9-20,81,72,63,72,66,55,83,72,55,30.09,30.04,30.01,9,7,5,16,7,,0.00,2,,303
2013-9-21,86,77,68,73,69,64,88,72,58,30.19,30.14,30.09,6,6,5,14,6,,0.00,1,,1
2013-9-22,86,76,66,72,69,63,88,72,58,30.23,30.17,30.12,6,6,5,14,6,,0.00,2,,338
2013-9-23,81,74,66,72,68,64,94,77,67,30.19,30.12,30.06,6,6,5,14,6,,0.00,1,,348
2013-9-24,79,73,67,72,68,64,88,79,73,30.08,30.03,29.98,6,6,5,12,5,,0.00,2,,351
2013-9-25,78,73,68,72,68,66,83,79,72,30.01,29.98,29.95,6,6,5,12,5,,0.00,2,,357
2013-9-26,79,74,68,70,68,64,83,78,69,30.01,29.97,29.95,6,6,5,12,4,,0.00,3,,14
2013-9-27,82,74,66,70,68,63,88,78,65,30.01,29.97,29.92,6,6,6,9,5,,0.00,5,,312
2013-9-28,77,73,69,70,68,63,94,84,73,30.01,29.96,29.89,6,6,3,12,5,,0.43,5,Rain-Thunderstorm,331
2013-9-29,79,73,67,71,69,64,94,82,72,30.04,30.01,29.98,9,7,6,7,4,,0.00,4,,85
2013-9-30,82,73,64,72,69,62,89,77,66,30.02,29.98,29.95,9,8,6,12,4,,0.00,,,62